sensor_id;sensor_type;location;lat;lon;timestamp;P1;durP1;ratioP1;P2;durP2;ratioP2
30571;SDS011;17348;50.948;10.696;2022-10-31T00:00:48;14.75;;;4.70;;
30571;SDS011;17348;50.948;10.696;2022-10-31T00:03:51;13.65;;;5.43;;
30571;SDS011;17348;50.948;10.696;2022-10-31T00:06:53;8.48;;;3.42;;
30571;SDS011;17348;50.948;10.696;2022-10-31T00:09:56;9.00;;;3.70;;
30571;SDS011;17348;50.948;10.696;2022-10-31T00:12:59;11.27;;;4.05;;
30571;SDS011;17348;50.948;10.696;2022-10-31T00:16:01;13.80;;;3.40;;
30571;SDS011;17348;50.948;10.696;2022-10-31T00:19:05;9.50;;;3.22;;
30571;SDS011;17348;50.948;10.696;2022-10-31T00:22:08;8.52;;;3.50;;
30571;SDS011;17348;50.948;10.696;2022-10-31T00:25:10;9.68;;;3.70;;
30571;SDS011;17348;50.948;10.696;2022-10-31T00:28:13;19.88;;;2.92;;
30571;SDS011;17348;50.948;10.696;2022-10-31T00:31:16;8.70;;;3.00;;
30571;SDS011;17348;50.948;10.696;2022-10-31T00:34:18;10.07;;;3.53;;
30571;SDS011;17348;50.948;10.696;2022-10-31T00:37:21;12.57;;;4.28;;
30571;SDS011;17348;50.948;10.696;2022-10-31T00:40:23;9.45;;;3.83;;
30571;SDS011;17348;50.948;10.696;2022-10-31T00:43:26;17.70;;;3.53;;
30571;SDS011;17348;50.948;10.696;2022-10-31T00:46:29;17.67;;;4.65;;
30571;SDS011;17348;50.948;10.696;2022-10-31T00:49:31;13.82;;;4.28;;
30571;SDS011;17348;50.948;10.696;2022-10-31T00:52:33;14.20;;;3.70;;
30571;SDS011;17348;50.948;10.696;2022-10-31T00:55:36;11.30;;;3.20;;
30571;SDS011;17348;50.948;10.696;2022-10-31T00:58:39;10.40;;;3.60;;
30571;SDS011;17348;50.948;10.696;2022-10-31T01:01:41;11.90;;;4.10;;
30571;SDS011;17348;50.948;10.696;2022-10-31T01:04:44;17.92;;;3.60;;
30571;SDS011;17348;50.948;10.696;2022-10-31T01:07:46;12.13;;;3.72;;
30571;SDS011;17348;50.948;10.696;2022-10-31T01:10:57;13.85;;;3.83;;
30571;SDS011;17348;50.948;10.696;2022-10-31T01:14:02;12.07;;;3.75;;
30571;SDS011;17348;50.948;10.696;2022-10-31T01:17:04;16.17;;;4.63;;
30571;SDS011;17348;50.948;10.696;2022-10-31T01:20:07;13.95;;;3.75;;
30571;SDS011;17348;50.948;10.696;2022-10-31T01:23:10;12.80;;;4.25;;
30571;SDS011;17348;50.948;10.696;2022-10-31T01:26:13;9.38;;;3.95;;
30571;SDS011;17348;50.948;10.696;2022-10-31T01:29:17;26.23;;;4.05;;
30571;SDS011;17348;50.948;10.696;2022-10-31T01:32:19;10.05;;;3.42;;
30571;SDS011;17348;50.948;10.696;2022-10-31T01:35:22;11.23;;;3.33;;
30571;SDS011;17348;50.948;10.696;2022-10-31T01:38:24;11.00;;;3.67;;
30571;SDS011;17348;50.948;10.696;2022-10-31T01:41:27;17.92;;;4.70;;
30571;SDS011;17348;50.948;10.696;2022-10-31T01:48:01;10.82;;;3.15;;
30571;SDS011;17348;50.948;10.696;2022-10-31T01:51:04;13.02;;;3.30;;
30571;SDS011;17348;50.948;10.696;2022-10-31T01:54:07;14.75;;;4.15;;
30571;SDS011;17348;50.948;10.696;2022-10-31T01:57:13;9.65;;;3.65;;
30571;SDS011;17348;50.948;10.696;2022-10-31T02:00:19;14.43;;;3.70;;
30571;SDS011;17348;50.948;10.696;2022-10-31T02:03:22;11.77;;;4.18;;
30571;SDS011;17348;50.948;10.696;2022-10-31T02:06:27;9.85;;;3.83;;
30571;SDS011;17348;50.948;10.696;2022-10-31T02:09:34;7.60;;;3.35;;
30571;SDS011;17348;50.948;10.696;2022-10-31T02:12:38;9.57;;;3.78;;
30571;SDS011;17348;50.948;10.696;2022-10-31T02:15:44;9.85;;;3.42;;
30571;SDS011;17348;50.948;10.696;2022-10-31T02:18:48;14.90;;;4.18;;
30571;SDS011;17348;50.948;10.696;2022-10-31T02:21:52;11.73;;;3.75;;
30571;SDS011;17348;50.948;10.696;2022-10-31T02:25:06;12.50;;;3.15;;
30571;SDS011;17348;50.948;10.696;2022-10-31T02:28:31;11.60;;;3.83;;
30571;SDS011;17348;50.948;10.696;2022-10-31T02:31:49;11.30;;;4.75;;
30571;SDS011;17348;50.948;10.696;2022-10-31T02:35:03;8.25;;;4.55;;
30571;SDS011;17348;50.948;10.696;2022-10-31T02:38:19;14.20;;;4.30;;
30571;SDS011;17348;50.948;10.696;2022-10-31T02:41:29;12.90;;;4.13;;
30571;SDS011;17348;50.948;10.696;2022-10-31T02:44:38;22.30;;;5.57;;
30571;SDS011;17348;50.948;10.696;2022-10-31T02:47:46;9.50;;;3.97;;
30571;SDS011;17348;50.948;10.696;2022-10-31T02:50:54;16.17;;;5.07;;
30571;SDS011;17348;50.948;10.696;2022-10-31T02:53:59;11.73;;;4.50;;
30571;SDS011;17348;50.948;10.696;2022-10-31T02:57:02;16.73;;;5.47;;
30571;SDS011;17348;50.948;10.696;2022-10-31T03:00:08;16.70;;;4.47;;
30571;SDS011;17348;50.948;10.696;2022-10-31T03:03:13;12.23;;;4.60;;
30571;SDS011;17348;50.948;10.696;2022-10-31T03:06:23;17.88;;;5.35;;
30571;SDS011;17348;50.948;10.696;2022-10-31T03:09:33;12.77;;;5.15;;
30571;SDS011;17348;50.948;10.696;2022-10-31T03:12:46;19.48;;;6.00;;
30571;SDS011;17348;50.948;10.696;2022-10-31T03:15:53;12.98;;;4.78;;
30571;SDS011;17348;50.948;10.696;2022-10-31T03:19:04;14.93;;;5.05;;
30571;SDS011;17348;50.948;10.696;2022-10-31T03:22:10;16.05;;;4.47;;
30571;SDS011;17348;50.948;10.696;2022-10-31T03:25:17;15.93;;;5.55;;
30571;SDS011;17348;50.948;10.696;2022-10-31T03:28:21;21.52;;;5.72;;
30571;SDS011;17348;50.948;10.696;2022-10-31T03:31:30;17.45;;;4.90;;
30571;SDS011;17348;50.948;10.696;2022-10-31T03:34:37;11.07;;;5.13;;
30571;SDS011;17348;50.948;10.696;2022-10-31T03:37:42;15.50;;;5.68;;
30571;SDS011;17348;50.948;10.696;2022-10-31T03:40:45;13.57;;;5.40;;
30571;SDS011;17348;50.948;10.696;2022-10-31T03:43:52;14.20;;;4.53;;
30571;SDS011;17348;50.948;10.696;2022-10-31T03:46:58;10.18;;;4.72;;
30571;SDS011;17348;50.948;10.696;2022-10-31T03:50:04;14.48;;;5.00;;
30571;SDS011;17348;50.948;10.696;2022-10-31T03:53:09;11.38;;;4.38;;
30571;SDS011;17348;50.948;10.696;2022-10-31T03:56:16;13.95;;;4.43;;
30571;SDS011;17348;50.948;10.696;2022-10-31T03:59:24;8.25;;;4.63;;
30571;SDS011;17348;50.948;10.696;2022-10-31T04:02:30;11.93;;;4.30;;
30571;SDS011;17348;50.948;10.696;2022-10-31T04:05:36;11.25;;;4.07;;
30571;SDS011;17348;50.948;10.696;2022-10-31T04:08:41;12.50;;;4.47;;
30571;SDS011;17348;50.948;10.696;2022-10-31T04:11:48;13.95;;;4.40;;
30571;SDS011;17348;50.948;10.696;2022-10-31T04:14:52;10.88;;;4.13;;
30571;SDS011;17348;50.948;10.696;2022-10-31T04:17:58;10.07;;;3.65;;
30571;SDS011;17348;50.948;10.696;2022-10-31T04:21:03;10.18;;;4.15;;
30571;SDS011;17348;50.948;10.696;2022-10-31T04:24:07;15.00;;;4.32;;
30571;SDS011;17348;50.948;10.696;2022-10-31T04:27:09;8.55;;;3.90;;
30571;SDS011;17348;50.948;10.696;2022-10-31T04:30:12;13.10;;;3.85;;
30571;SDS011;17348;50.948;10.696;2022-10-31T04:33:14;11.52;;;4.10;;
30571;SDS011;17348;50.948;10.696;2022-10-31T04:36:18;12.57;;;4.15;;
30571;SDS011;17348;50.948;10.696;2022-10-31T04:39:20;10.82;;;3.78;;
30571;SDS011;17348;50.948;10.696;2022-10-31T04:42:23;10.85;;;4.70;;
30571;SDS011;17348;50.948;10.696;2022-10-31T04:45:25;12.65;;;4.90;;
30571;SDS011;17348;50.948;10.696;2022-10-31T04:48:27;13.98;;;5.03;;
30571;SDS011;17348;50.948;10.696;2022-10-31T04:51:31;12.15;;;5.32;;
30571;SDS011;17348;50.948;10.696;2022-10-31T04:54:33;11.85;;;4.60;;
30571;SDS011;17348;50.948;10.696;2022-10-31T04:57:39;15.40;;;5.82;;
30571;SDS011;17348;50.948;10.696;2022-10-31T05:00:42;13.43;;;4.85;;
30571;SDS011;17348;50.948;10.696;2022-10-31T05:03:45;21.05;;;4.47;;
30571;SDS011;17348;50.948;10.696;2022-10-31T05:06:48;13.20;;;4.85;;
30571;SDS011;17348;50.948;10.696;2022-10-31T05:09:50;11.55;;;4.68;;
30571;SDS011;17348;50.948;10.696;2022-10-31T05:12:53;15.55;;;4.88;;
30571;SDS011;17348;50.948;10.696;2022-10-31T05:15:56;13.60;;;4.25;;
30571;SDS011;17348;50.948;10.696;2022-10-31T05:18:58;14.05;;;4.43;;
30571;SDS011;17348;50.948;10.696;2022-10-31T05:22:02;19.13;;;5.13;;
30571;SDS011;17348;50.948;10.696;2022-10-31T05:25:04;12.07;;;4.60;;
30571;SDS011;17348;50.948;10.696;2022-10-31T05:28:07;8.18;;;4.22;;
30571;SDS011;17348;50.948;10.696;2022-10-31T05:31:09;16.65;;;5.53;;
30571;SDS011;17348;50.948;10.696;2022-10-31T05:34:11;11.93;;;4.97;;
30571;SDS011;17348;50.948;10.696;2022-10-31T05:37:15;14.70;;;4.63;;
30571;SDS011;17348;50.948;10.696;2022-10-31T05:40:18;11.82;;;4.72;;
30571;SDS011;17348;50.948;10.696;2022-10-31T05:43:21;12.95;;;4.60;;
30571;SDS011;17348;50.948;10.696;2022-10-31T05:46:23;16.67;;;5.05;;
30571;SDS011;17348;50.948;10.696;2022-10-31T05:49:25;16.17;;;4.85;;
30571;SDS011;17348;50.948;10.696;2022-10-31T05:52:29;16.02;;;4.80;;
30571;SDS011;17348;50.948;10.696;2022-10-31T05:55:31;25.65;;;5.35;;
30571;SDS011;17348;50.948;10.696;2022-10-31T05:58:33;10.70;;;5.50;;
30571;SDS011;17348;50.948;10.696;2022-10-31T06:01:35;9.90;;;4.45;;
30571;SDS011;17348;50.948;10.696;2022-10-31T06:04:38;7.35;;;4.55;;
30571;SDS011;17348;50.948;10.696;2022-10-31T06:07:41;10.32;;;5.03;;
30571;SDS011;17348;50.948;10.696;2022-10-31T06:10:44;19.77;;;4.22;;
30571;SDS011;17348;50.948;10.696;2022-10-31T06:13:46;7.22;;;4.47;;
30571;SDS011;17348;50.948;10.696;2022-10-31T06:16:48;14.20;;;5.55;;
30571;SDS011;17348;50.948;10.696;2022-10-31T06:19:50;10.75;;;4.80;;
30571;SDS011;17348;50.948;10.696;2022-10-31T06:22:54;11.65;;;4.13;;
30571;SDS011;17348;50.948;10.696;2022-10-31T06:25:56;21.15;;;5.63;;
30571;SDS011;17348;50.948;10.696;2022-10-31T06:28:58;17.83;;;4.68;;
30571;SDS011;17348;50.948;10.696;2022-10-31T06:32:00;43.35;;;8.30;;
30571;SDS011;17348;50.948;10.696;2022-10-31T06:35:03;29.33;;;6.15;;
30571;SDS011;17348;50.948;10.696;2022-10-31T06:38:07;13.98;;;5.25;;
30571;SDS011;17348;50.948;10.696;2022-10-31T06:41:09;12.82;;;4.72;;
30571;SDS011;17348;50.948;10.696;2022-10-31T06:44:11;14.50;;;5.25;;
30571;SDS011;17348;50.948;10.696;2022-10-31T06:47:13;9.95;;;4.93;;
30571;SDS011;17348;50.948;10.696;2022-10-31T06:50:15;13.98;;;4.82;;
30571;SDS011;17348;50.948;10.696;2022-10-31T06:53:19;8.90;;;5.00;;
30571;SDS011;17348;50.948;10.696;2022-10-31T06:56:21;18.27;;;5.32;;
30571;SDS011;17348;50.948;10.696;2022-10-31T06:59:23;20.45;;;5.40;;
30571;SDS011;17348;50.948;10.696;2022-10-31T07:02:25;14.82;;;5.32;;
30571;SDS011;17348;50.948;10.696;2022-10-31T07:05:28;16.55;;;4.63;;
30571;SDS011;17348;50.948;10.696;2022-10-31T07:08:35;12.73;;;5.85;;
30571;SDS011;17348;50.948;10.696;2022-10-31T07:11:37;12.95;;;5.28;;
30571;SDS011;17348;50.948;10.696;2022-10-31T07:14:40;16.92;;;4.72;;
30571;SDS011;17348;50.948;10.696;2022-10-31T07:17:42;11.07;;;4.53;;
30571;SDS011;17348;50.948;10.696;2022-10-31T07:20:44;14.63;;;5.30;;
30571;SDS011;17348;50.948;10.696;2022-10-31T07:23:48;20.60;;;5.70;;
30571;SDS011;17348;50.948;10.696;2022-10-31T07:26:50;13.57;;;4.85;;
30571;SDS011;17348;50.948;10.696;2022-10-31T07:29:53;13.57;;;4.72;;
30571;SDS011;17348;50.948;10.696;2022-10-31T07:32:55;18.00;;;4.90;;
30571;SDS011;17348;50.948;10.696;2022-10-31T07:35:57;17.25;;;5.55;;
30571;SDS011;17348;50.948;10.696;2022-10-31T07:39:01;19.13;;;5.63;;
30571;SDS011;17348;50.948;10.696;2022-10-31T07:42:04;11.93;;;4.72;;
30571;SDS011;17348;50.948;10.696;2022-10-31T07:45:07;12.75;;;5.45;;
30571;SDS011;17348;50.948;10.696;2022-10-31T07:48:11;11.10;;;5.20;;
30571;SDS011;17348;50.948;10.696;2022-10-31T07:51:13;17.73;;;6.20;;
30571;SDS011;17348;50.948;10.696;2022-10-31T07:54:16;14.70;;;5.80;;
30571;SDS011;17348;50.948;10.696;2022-10-31T07:57:19;14.65;;;5.40;;
30571;SDS011;17348;50.948;10.696;2022-10-31T08:00:21;19.33;;;5.50;;
30571;SDS011;17348;50.948;10.696;2022-10-31T08:03:23;19.17;;;6.40;;
30571;SDS011;17348;50.948;10.696;2022-10-31T08:06:25;10.90;;;5.05;;
30571;SDS011;17348;50.948;10.696;2022-10-31T08:09:29;16.80;;;5.72;;
30571;SDS011;17348;50.948;10.696;2022-10-31T08:12:31;10.35;;;4.38;;
30571;SDS011;17348;50.948;10.696;2022-10-31T08:15:33;17.35;;;5.65;;
30571;SDS011;17348;50.948;10.696;2022-10-31T08:18:38;11.73;;;5.07;;
30571;SDS011;17348;50.948;10.696;2022-10-31T08:21:40;12.32;;;5.18;;
30571;SDS011;17348;50.948;10.696;2022-10-31T08:24:44;15.88;;;4.30;;
30571;SDS011;17348;50.948;10.696;2022-10-31T08:27:48;15.00;;;5.55;;
30571;SDS011;17348;50.948;10.696;2022-10-31T08:30:51;18.63;;;5.60;;
30571;SDS011;17348;50.948;10.696;2022-10-31T08:33:53;15.32;;;5.15;;
30571;SDS011;17348;50.948;10.696;2022-10-31T08:36:56;15.80;;;5.38;;
30571;SDS011;17348;50.948;10.696;2022-10-31T08:40:00;16.92;;;4.75;;
30571;SDS011;17348;50.948;10.696;2022-10-31T08:43:03;16.02;;;6.30;;
30571;SDS011;17348;50.948;10.696;2022-10-31T08:46:06;13.88;;;4.68;;
30571;SDS011;17348;50.948;10.696;2022-10-31T08:49:08;15.73;;;4.35;;
30571;SDS011;17348;50.948;10.696;2022-10-31T08:52:11;12.85;;;5.10;;
30571;SDS011;17348;50.948;10.696;2022-10-31T08:55:16;13.82;;;4.22;;
30571;SDS011;17348;50.948;10.696;2022-10-31T08:58:19;12.10;;;4.65;;
30571;SDS011;17348;50.948;10.696;2022-10-31T09:01:21;12.20;;;4.22;;
30571;SDS011;17348;50.948;10.696;2022-10-31T09:04:24;14.02;;;3.83;;
30571;SDS011;17348;50.948;10.696;2022-10-31T09:07:26;21.77;;;4.72;;
30571;SDS011;17348;50.948;10.696;2022-10-31T09:10:30;14.35;;;4.78;;
30571;SDS011;17348;50.948;10.696;2022-10-31T09:13:33;11.80;;;4.20;;
30571;SDS011;17348;50.948;10.696;2022-10-31T09:16:36;14.57;;;4.05;;
30571;SDS011;17348;50.948;10.696;2022-10-31T09:19:38;9.00;;;4.03;;
30571;SDS011;17348;50.948;10.696;2022-10-31T09:22:40;13.68;;;4.05;;
30571;SDS011;17348;50.948;10.696;2022-10-31T09:25:44;6.47;;;3.45;;
30571;SDS011;17348;50.948;10.696;2022-10-31T09:28:47;15.23;;;4.90;;
30571;SDS011;17348;50.948;10.696;2022-10-31T09:31:49;14.18;;;5.18;;
30571;SDS011;17348;50.948;10.696;2022-10-31T09:34:51;12.40;;;5.13;;
30571;SDS011;17348;50.948;10.696;2022-10-31T09:37:54;11.98;;;4.75;;
30571;SDS011;17348;50.948;10.696;2022-10-31T09:41:03;18.23;;;4.85;;
30571;SDS011;17348;50.948;10.696;2022-10-31T09:44:11;19.25;;;5.55;;
30571;SDS011;17348;50.948;10.696;2022-10-31T09:47:26;18.05;;;5.57;;
30571;SDS011;17348;50.948;10.696;2022-10-31T09:50:37;28.48;;;6.30;;
30571;SDS011;17348;50.948;10.696;2022-10-31T09:53:43;16.10;;;6.30;;
30571;SDS011;17348;50.948;10.696;2022-10-31T09:56:50;22.73;;;5.65;;
30571;SDS011;17348;50.948;10.696;2022-10-31T09:59:53;15.93;;;6.53;;
30571;SDS011;17348;50.948;10.696;2022-10-31T10:02:56;20.13;;;6.43;;
30571;SDS011;17348;50.948;10.696;2022-10-31T10:06:04;21.58;;;5.63;;
30571;SDS011;17348;50.948;10.696;2022-10-31T10:09:14;18.65;;;6.18;;
30571;SDS011;17348;50.948;10.696;2022-10-31T10:12:19;14.63;;;5.78;;
30571;SDS011;17348;50.948;10.696;2022-10-31T10:15:37;19.95;;;6.10;;
30571;SDS011;17348;50.948;10.696;2022-10-31T10:18:55;20.40;;;5.95;;
30571;SDS011;17348;50.948;10.696;2022-10-31T10:22:07;18.27;;;5.88;;
30571;SDS011;17348;50.948;10.696;2022-10-31T10:25:20;18.70;;;6.28;;
30571;SDS011;17348;50.948;10.696;2022-10-31T10:28:27;21.70;;;6.13;;
30571;SDS011;17348;50.948;10.696;2022-10-31T10:31:39;16.40;;;5.35;;
30571;SDS011;17348;50.948;10.696;2022-10-31T10:34:47;17.77;;;6.32;;
30571;SDS011;17348;50.948;10.696;2022-10-31T10:37:53;15.27;;;6.85;;
30571;SDS011;17348;50.948;10.696;2022-10-31T10:41:00;22.95;;;6.28;;
30571;SDS011;17348;50.948;10.696;2022-10-31T10:44:12;24.60;;;6.20;;
30571;SDS011;17348;50.948;10.696;2022-10-31T10:47:16;16.73;;;5.72;;
30571;SDS011;17348;50.948;10.696;2022-10-31T10:50:36;15.00;;;5.35;;
30571;SDS011;17348;50.948;10.696;2022-10-31T10:53:44;17.90;;;5.72;;
30571;SDS011;17348;50.948;10.696;2022-10-31T10:57:03;14.73;;;4.45;;
30571;SDS011;17348;50.948;10.696;2022-10-31T11:00:19;10.52;;;5.80;;
30571;SDS011;17348;50.948;10.696;2022-10-31T11:03:23;13.82;;;5.18;;
30571;SDS011;17348;50.948;10.696;2022-10-31T11:06:26;14.85;;;5.97;;
30571;SDS011;17348;50.948;10.696;2022-10-31T11:09:28;19.42;;;6.25;;
30571;SDS011;17348;50.948;10.696;2022-10-31T11:12:31;16.23;;;5.80;;
30571;SDS011;17348;50.948;10.696;2022-10-31T11:15:37;24.20;;;5.65;;
30571;SDS011;17348;50.948;10.696;2022-10-31T11:18:51;21.13;;;5.95;;
30571;SDS011;17348;50.948;10.696;2022-10-31T11:21:53;19.63;;;6.45;;
30571;SDS011;17348;50.948;10.696;2022-10-31T11:44:29;17.00;;;6.30;;
30571;SDS011;17348;50.948;10.696;2022-10-31T11:47:33;15.20;;;5.78;;
30571;SDS011;17348;50.948;10.696;2022-10-31T11:50:38;21.40;;;6.32;;
30571;SDS011;17348;50.948;10.696;2022-10-31T11:53:47;22.48;;;5.47;;
30571;SDS011;17348;50.948;10.696;2022-10-31T11:56:52;15.63;;;6.05;;
30571;SDS011;17348;50.948;10.696;2022-10-31T11:59:57;14.35;;;4.97;;
30571;SDS011;17348;50.948;10.696;2022-10-31T12:03:10;19.52;;;6.47;;
30571;SDS011;17348;50.948;10.696;2022-10-31T12:06:18;17.48;;;5.57;;
30571;SDS011;17348;50.948;10.696;2022-10-31T12:09:24;15.73;;;5.43;;
30571;SDS011;17348;50.948;10.696;2022-10-31T12:12:40;18.55;;;6.05;;
30571;SDS011;17348;50.948;10.696;2022-10-31T12:15:55;20.90;;;6.00;;
30571;SDS011;17348;50.948;10.696;2022-10-31T12:19:04;12.43;;;5.70;;
30571;SDS011;17348;50.948;10.696;2022-10-31T12:22:13;24.48;;;6.60;;
30571;SDS011;17348;50.948;10.696;2022-10-31T12:25:29;10.77;;;5.25;;
30571;SDS011;17348;50.948;10.696;2022-10-31T12:28:43;17.20;;;6.50;;
30571;SDS011;17348;50.948;10.696;2022-10-31T12:32:04;22.08;;;6.22;;
30571;SDS011;17348;50.948;10.696;2022-10-31T12:35:23;12.68;;;6.25;;
30571;SDS011;17348;50.948;10.696;2022-10-31T12:38:46;13.13;;;5.82;;
30571;SDS011;17348;50.948;10.696;2022-10-31T12:41:59;9.05;;;5.60;;
30571;SDS011;17348;50.948;10.696;2022-10-31T12:45:27;22.40;;;5.63;;
30571;SDS011;17348;50.948;10.696;2022-10-31T12:48:45;22.20;;;7.25;;
30571;SDS011;17348;50.948;10.696;2022-10-31T12:52:01;17.23;;;5.63;;
30571;SDS011;17348;50.948;10.696;2022-10-31T12:55:16;15.38;;;6.50;;
30571;SDS011;17348;50.948;10.696;2022-10-31T12:58:31;13.95;;;6.20;;
30571;SDS011;17348;50.948;10.696;2022-10-31T13:01:37;18.05;;;6.72;;
30571;SDS011;17348;50.948;10.696;2022-10-31T13:04:48;21.95;;;6.80;;
30571;SDS011;17348;50.948;10.696;2022-10-31T13:07:54;17.88;;;6.95;;
30571;SDS011;17348;50.948;10.696;2022-10-31T13:11:01;17.33;;;6.03;;
30571;SDS011;17348;50.948;10.696;2022-10-31T13:14:09;13.18;;;5.47;;
30571;SDS011;17348;50.948;10.696;2022-10-31T13:17:21;19.38;;;6.60;;
30571;SDS011;17348;50.948;10.696;2022-10-31T13:20:29;15.68;;;6.95;;
30571;SDS011;17348;50.948;10.696;2022-10-31T13:23:35;17.77;;;6.45;;
30571;SDS011;17348;50.948;10.696;2022-10-31T13:26:40;15.60;;;7.13;;
30571;SDS011;17348;50.948;10.696;2022-10-31T13:29:49;20.88;;;7.25;;
30571;SDS011;17348;50.948;10.696;2022-10-31T13:33:01;19.67;;;7.07;;
30571;SDS011;17348;50.948;10.696;2022-10-31T13:36:14;26.90;;;8.98;;
30571;SDS011;17348;50.948;10.696;2022-10-31T13:39:25;16.77;;;7.78;;
30571;SDS011;17348;50.948;10.696;2022-10-31T13:42:39;18.30;;;7.85;;
30571;SDS011;17348;50.948;10.696;2022-10-31T13:45:52;22.15;;;8.18;;
30571;SDS011;17348;50.948;10.696;2022-10-31T13:48:55;19.08;;;8.27;;
30571;SDS011;17348;50.948;10.696;2022-10-31T13:52:06;16.40;;;7.35;;
30571;SDS011;17348;50.948;10.696;2022-10-31T13:55:34;27.23;;;10.50;;
30571;SDS011;17348;50.948;10.696;2022-10-31T13:58:37;23.58;;;8.68;;
30571;SDS011;17348;50.948;10.696;2022-10-31T14:01:44;23.02;;;8.75;;
30571;SDS011;17348;50.948;10.696;2022-10-31T14:04:49;20.67;;;8.32;;
30571;SDS011;17348;50.948;10.696;2022-10-31T14:07:56;22.58;;;7.53;;
30571;SDS011;17348;50.948;10.696;2022-10-31T14:11:00;24.20;;;7.50;;
30571;SDS011;17348;50.948;10.696;2022-10-31T14:14:08;18.17;;;7.07;;
30571;SDS011;17348;50.948;10.696;2022-10-31T14:17:18;16.88;;;7.35;;
30571;SDS011;17348;50.948;10.696;2022-10-31T14:20:34;17.67;;;7.68;;
30571;SDS011;17348;50.948;10.696;2022-10-31T14:23:40;15.40;;;6.88;;
30571;SDS011;17348;50.948;10.696;2022-10-31T14:26:51;20.23;;;7.55;;
30571;SDS011;17348;50.948;10.696;2022-10-31T14:29:54;29.60;;;7.60;;
30571;SDS011;17348;50.948;10.696;2022-10-31T14:32:57;30.90;;;8.60;;
30571;SDS011;17348;50.948;10.696;2022-10-31T14:36:04;26.30;;;8.15;;
30571;SDS011;17348;50.948;10.696;2022-10-31T14:39:13;21.27;;;8.95;;
30571;SDS011;17348;50.948;10.696;2022-10-31T14:42:30;24.98;;;9.05;;
30571;SDS011;17348;50.948;10.696;2022-10-31T14:45:44;22.70;;;8.05;;
30571;SDS011;17348;50.948;10.696;2022-10-31T14:49:00;16.70;;;8.18;;
30571;SDS011;17348;50.948;10.696;2022-10-31T14:52:11;17.80;;;8.60;;
30571;SDS011;17348;50.948;10.696;2022-10-31T14:55:17;14.18;;;6.85;;
30571;SDS011;17348;50.948;10.696;2022-10-31T14:58:21;22.70;;;8.23;;
30571;SDS011;17348;50.948;10.696;2022-10-31T15:01:27;27.92;;;7.20;;
30571;SDS011;17348;50.948;10.696;2022-10-31T15:04:31;25.27;;;9.43;;
30571;SDS011;17348;50.948;10.696;2022-10-31T15:07:36;25.88;;;8.50;;
30571;SDS011;17348;50.948;10.696;2022-10-31T15:10:51;17.27;;;8.07;;
30571;SDS011;17348;50.948;10.696;2022-10-31T15:13:55;20.35;;;8.77;;
30571;SDS011;17348;50.948;10.696;2022-10-31T15:16:58;25.13;;;8.15;;
30571;SDS011;17348;50.948;10.696;2022-10-31T15:20:03;23.40;;;9.15;;
30571;SDS011;17348;50.948;10.696;2022-10-31T15:23:09;18.23;;;9.13;;
30571;SDS011;17348;50.948;10.696;2022-10-31T15:26:19;20.45;;;9.70;;
30571;SDS011;17348;50.948;10.696;2022-10-31T15:29:24;35.63;;;9.98;;
30571;SDS011;17348;50.948;10.696;2022-10-31T15:32:28;26.33;;;9.65;;
30571;SDS011;17348;50.948;10.696;2022-10-31T15:35:30;27.70;;;9.63;;
30571;SDS011;17348;50.948;10.696;2022-10-31T15:38:33;36.17;;;8.90;;
30571;SDS011;17348;50.948;10.696;2022-10-31T15:41:39;26.25;;;9.38;;
30571;SDS011;17348;50.948;10.696;2022-10-31T15:44:46;23.20;;;9.65;;
30571;SDS011;17348;50.948;10.696;2022-10-31T15:47:53;27.17;;;10.18;;
30571;SDS011;17348;50.948;10.696;2022-10-31T15:51:00;24.45;;;9.80;;
30571;SDS011;17348;50.948;10.696;2022-10-31T15:54:05;23.33;;;11.20;;
30571;SDS011;17348;50.948;10.696;2022-10-31T15:57:15;25.27;;;11.20;;
30571;SDS011;17348;50.948;10.696;2022-10-31T16:00:22;27.42;;;11.75;;
30571;SDS011;17348;50.948;10.696;2022-10-31T16:03:26;29.70;;;12.13;;
30571;SDS011;17348;50.948;10.696;2022-10-31T16:06:30;32.50;;;12.23;;
30571;SDS011;17348;50.948;10.696;2022-10-31T16:09:34;33.22;;;12.70;;
30571;SDS011;17348;50.948;10.696;2022-10-31T16:12:42;30.83;;;11.85;;
30571;SDS011;17348;50.948;10.696;2022-10-31T16:15:48;29.60;;;12.75;;
30571;SDS011;17348;50.948;10.696;2022-10-31T16:18:53;32.88;;;12.57;;
30571;SDS011;17348;50.948;10.696;2022-10-31T16:22:02;45.60;;;14.07;;
30571;SDS011;17348;50.948;10.696;2022-10-31T16:25:08;37.50;;;15.13;;
30571;SDS011;17348;50.948;10.696;2022-10-31T16:28:15;44.70;;;15.40;;
30571;SDS011;17348;50.948;10.696;2022-10-31T16:31:25;34.55;;;14.60;;
30571;SDS011;17348;50.948;10.696;2022-10-31T16:34:29;29.67;;;13.02;;
30571;SDS011;17348;50.948;10.696;2022-10-31T16:37:32;29.42;;;12.85;;
30571;SDS011;17348;50.948;10.696;2022-10-31T16:40:34;25.15;;;12.75;;
30571;SDS011;17348;50.948;10.696;2022-10-31T16:43:40;36.92;;;13.50;;
30571;SDS011;17348;50.948;10.696;2022-10-31T16:46:42;32.80;;;13.32;;
30571;SDS011;17348;50.948;10.696;2022-10-31T16:49:46;31.92;;;14.45;;
30571;SDS011;17348;50.948;10.696;2022-10-31T16:52:50;45.08;;;20.73;;
30571;SDS011;17348;50.948;10.696;2022-10-31T16:55:54;39.63;;;16.35;;
30571;SDS011;17348;50.948;10.696;2022-10-31T16:58:59;46.95;;;18.45;;
30571;SDS011;17348;50.948;10.696;2022-10-31T17:02:03;38.47;;;17.98;;
30571;SDS011;17348;50.948;10.696;2022-10-31T17:05:08;46.70;;;19.08;;
30571;SDS011;17348;50.948;10.696;2022-10-31T17:08:12;50.33;;;18.65;;
30571;SDS011;17348;50.948;10.696;2022-10-31T17:11:16;55.97;;;21.98;;
30571;SDS011;17348;50.948;10.696;2022-10-31T17:14:22;41.72;;;18.92;;
30571;SDS011;17348;50.948;10.696;2022-10-31T17:17:25;44.00;;;19.52;;
30571;SDS011;17348;50.948;10.696;2022-10-31T17:20:28;65.57;;;18.50;;
30571;SDS011;17348;50.948;10.696;2022-10-31T17:23:32;43.28;;;20.33;;
30571;SDS011;17348;50.948;10.696;2022-10-31T17:26:34;59.38;;;19.50;;
30571;SDS011;17348;50.948;10.696;2022-10-31T17:29:38;44.95;;;19.92;;
30571;SDS011;17348;50.948;10.696;2022-10-31T17:32:40;61.58;;;26.05;;
30571;SDS011;17348;50.948;10.696;2022-10-31T17:35:42;58.58;;;25.73;;
30571;SDS011;17348;50.948;10.696;2022-10-31T17:38:45;55.92;;;23.27;;
30571;SDS011;17348;50.948;10.696;2022-10-31T17:41:49;50.67;;;22.38;;
30571;SDS011;17348;50.948;10.696;2022-10-31T17:44:53;55.00;;;21.88;;
30571;SDS011;17348;50.948;10.696;2022-10-31T17:47:55;57.58;;;22.60;;
30571;SDS011;17348;50.948;10.696;2022-10-31T17:50:58;52.15;;;22.40;;
30571;SDS011;17348;50.948;10.696;2022-10-31T17:54:01;56.60;;;21.83;;
30571;SDS011;17348;50.948;10.696;2022-10-31T17:57:05;53.13;;;21.55;;
30571;SDS011;17348;50.948;10.696;2022-10-31T18:00:10;53.72;;;22.83;;
30571;SDS011;17348;50.948;10.696;2022-10-31T18:03:14;55.05;;;20.95;;
30571;SDS011;17348;50.948;10.696;2022-10-31T18:06:16;51.15;;;23.13;;
30571;SDS011;17348;50.948;10.696;2022-10-31T18:09:18;68.80;;;26.52;;
30571;SDS011;17348;50.948;10.696;2022-10-31T18:12:21;62.33;;;25.65;;
30571;SDS011;17348;50.948;10.696;2022-10-31T18:15:24;64.50;;;25.98;;
30571;SDS011;17348;50.948;10.696;2022-10-31T18:18:26;59.08;;;25.88;;
30571;SDS011;17348;50.948;10.696;2022-10-31T18:21:29;62.47;;;27.23;;
30571;SDS011;17348;50.948;10.696;2022-10-31T18:24:31;64.78;;;25.73;;
30571;SDS011;17348;50.948;10.696;2022-10-31T18:27:34;60.58;;;26.13;;